Time;durP1;ratioP1;P1;durP2;ratioP2;P2;SDS_P1;SDS_P2;PMS_P1;PMS_P2;Temp;Humidity;BMP_temperature;BMP_pressure;BME280_temperature;BME280_humidity;BME280_pressure;Samples;Min_cycle;Max_cycle;Signal;HPM_P1;HPM_P2
2022/11/18 00:00:48;;;;;;;4.55;0.80;;;;;;;;;;5055331;28;20044;-74
2022/11/18 00:03:15;;;;;;;4.53;0.90;;;;;;;;;;5055078;28;20037;-74
2022/11/18 00:05:41;;;;;;;3.55;0.90;;;;;;;;;;5054877;28;20037;-74
2022/11/18 00:08:12;;;;;;;6.65;1.23;;;;;;;;;;5054808;28;20507;-74
2022/11/18 00:10:38;;;;;;;8.23;1.33;;;;;;;;;;5054868;28;20097;-74
2022/11/18 00:15:49;;;;;;;3.53;0.93;;;;;;;;;;5054435;28;20487;-73
2022/11/18 00:18:15;;;;;;;6.10;1.15;;;;;;;;;;5055190;28;20037;-74
2022/11/18 00:20:41;;;;;;;4.57;1.27;;;;;;;;;;5055176;28;20029;-74
2022/11/18 00:23:07;;;;;;;5.20;1.10;;;;;;;;;;5055121;28;20045;-74
2022/11/18 00:25:33;;;;;;;5.38;0.90;;;;;;;;;;5054790;28;20044;-74
2022/11/18 00:28:00;;;;;;;6.57;1.60;;;;;;;;;;5055091;28;20048;-74
2022/11/18 00:30:26;;;;;;;3.25;1.00;;;;;;;;;;5054267;28;20079;-74
2022/11/18 00:32:52;;;;;;;4.60;1.05;;;;;;;;;;5054755;28;20041;-74
2022/11/18 00:35:18;;;;;;;7.30;1.40;;;;;;;;;;5054706;28;20052;-74
2022/11/18 00:37:44;;;;;;;6.40;1.10;;;;;;;;;;5054312;28;20575;-74
2022/11/18 00:40:10;;;;;;;5.00;0.60;;;;;;;;;;5054906;28;20044;-74
2022/11/18 00:42:52;;;;;;;5.22;0.95;;;;;;;;;;5055226;28;20072;-74
2022/11/18 00:45:22;;;;;;;6.75;1.20;;;;;;;;;;5054027;28;20037;-74
2022/11/18 00:47:48;;;;;;;8.13;1.50;;;;;;;;;;5054889;28;20366;-74
2022/11/18 00:50:14;;;;;;;6.50;0.93;;;;;;;;;;5054921;28;20098;-74
2022/11/18 00:52:40;;;;;;;6.75;1.50;;;;;;;;;;5054540;28;20047;-74
2022/11/18 00:55:06;;;;;;;7.28;1.20;;;;;;;;;;5054084;28;20064;-74
2022/11/18 00:57:32;;;;;;;9.40;1.30;;;;;;;;;;5054704;28;20056;-74
2022/11/18 00:59:59;;;;;;;5.25;0.98;;;;;;;;;;5058028;28;20052;-74
2022/11/18 01:02:25;;;;;;;6.68;1.17;;;;;;;;;;5058529;28;20091;-74
2022/11/18 01:04:51;;;;;;;8.07;1.23;;;;;;;;;;5058516;28;20151;-74
2022/11/18 01:07:17;;;;;;;5.03;1.10;;;;;;;;;;5058460;28;20087;-74
2022/11/18 01:09:43;;;;;;;10.48;1.25;;;;;;;;;;5058732;28;20049;-74
2022/11/18 01:14:55;;;;;;;4.68;1.00;;;;;;;;;;5057807;28;20040;-74
2022/11/18 01:17:21;;;;;;;4.93;1.17;;;;;;;;;;5058775;28;20045;-74
2022/11/18 01:19:47;;;;;;;3.95;1.10;;;;;;;;;;5058478;28;20045;-74
2022/11/18 01:22:13;;;;;;;9.20;1.35;;;;;;;;;;5058187;28;20072;-74
2022/11/18 01:24:40;;;;;;;3.47;0.70;;;;;;;;;;5058035;28;20055;-74
2022/11/18 01:27:06;;;;;;;10.40;1.38;;;;;;;;;;5058705;28;20051;-74
2022/11/18 01:29:32;;;;;;;3.55;1.08;;;;;;;;;;5058167;28;20057;-74
2022/11/18 01:31:58;;;;;;;3.58;0.88;;;;;;;;;;5057756;28;20500;-74
2022/11/18 01:34:24;;;;;;;4.60;0.90;;;;;;;;;;5057967;28;20056;-74
2022/11/18 01:36:52;;;;;;;3.60;0.80;;;;;;;;;;5057862;28;20040;-74
2022/11/18 01:39:18;;;;;;;4.13;0.95;;;;;;;;;;5058169;28;20048;-74
2022/11/18 01:41:44;;;;;;;5.35;1.00;;;;;;;;;;5057700;28;20045;-74
2022/11/18 01:44:28;;;;;;;7.95;1.80;;;;;;;;;;5058030;28;20036;-74
2022/11/18 01:46:54;;;;;;;5.85;0.95;;;;;;;;;;5057437;28;20186;-74
2022/11/18 01:49:21;;;;;;;4.30;1.15;;;;;;;;;;5057154;28;20437;-74
2022/11/18 01:51:53;;;;;;;3.67;1.10;;;;;;;;;;5057928;28;20123;-74
2022/11/18 01:54:25;;;;;;;4.75;1.05;;;;;;;;;;5057655;28;20506;-74
2022/11/18 01:56:53;;;;;;;5.15;0.90;;;;;;;;;;5057314;28;20102;-74
2022/11/18 01:59:25;;;;;;;3.22;0.90;;;;;;;;;;5057847;28;20069;-74
2022/11/18 02:01:51;;;;;;;7.53;1.05;;;;;;;;;;5057742;28;20045;-74
2022/11/18 02:04:17;;;;;;;4.93;0.90;;;;;;;;;;5057925;28;20044;-74
2022/11/18 02:06:45;;;;;;;5.93;1.10;;;;;;;;;;5057890;28;20472;-74
2022/11/18 02:09:12;;;;;;;6.78;1.25;;;;;;;;;;5057629;28;20557;-74
2022/11/18 02:11:50;;;;;;;4.47;1.08;;;;;;;;;;5056267;28;20037;-74
2022/11/18 02:14:24;;;;;;;5.25;1.10;;;;;;;;;;5057255;28;20052;-74
2022/11/18 02:17:09;;;;;;;9.75;1.45;;;;;;;;;;5057477;28;20071;-74
2022/11/18 02:19:38;;;;;;;4.47;0.90;;;;;;;;;;5057131;28;20480;-74
2022/11/18 02:22:22;;;;;;;11.55;1.08;;;;;;;;;;5057355;28;20480;-74
2022/11/18 02:24:51;;;;;;;6.15;1.15;;;;;;;;;;5056480;28;20060;-74
2022/11/18 02:27:36;;;;;;;6.57;1.10;;;;;;;;;;5057300;28;20072;-74
2022/11/18 02:30:07;;;;;;;8.05;1.27;;;;;;;;;;5057333;28;20095;-74
2022/11/18 02:32:52;;;;;;;5.55;1.17;;;;;;;;;;5056920;28;20055;-74
2022/11/18 02:35:33;;;;;;;6.90;1.50;;;;;;;;;;5056707;28;20041;-74
2022/11/18 02:37:59;;;;;;;7.55;1.05;;;;;;;;;;5056702;28;20052;-74
2022/11/18 02:40:36;;;;;;;7.50;1.48;;;;;;;;;;5056694;28;20045;-74
2022/11/18 02:43:05;;;;;;;8.20;1.52;;;;;;;;;;5056709;28;20078;-74
2022/11/18 02:45:32;;;;;;;5.72;1.00;;;;;;;;;;5056658;28;20033;-74
2022/11/18 02:48:03;;;;;;;8.68;1.80;;;;;;;;;;5056274;28;20045;-74
2022/11/18 02:50:31;;;;;;;5.45;1.45;;;;;;;;;;5056663;28;20045;-74
2022/11/18 02:52:59;;;;;;;4.55;0.95;;;;;;;;;;5057072;28;20048;-74
2022/11/18 02:55:27;;;;;;;7.15;1.40;;;;;;;;;;5056150;28;20065;-74
2022/11/18 02:57:54;;;;;;;8.40;1.02;;;;;;;;;;5056281;28;20087;-74
2022/11/18 03:00:20;;;;;;;5.70;0.98;;;;;;;;;;5056564;28;20041;-74
2022/11/18 03:02:48;;;;;;;6.75;1.38;;;;;;;;;;5056579;28;20041;-74
2022/11/18 03:05:25;;;;;;;4.68;1.05;;;;;;;;;;5056209;28;20043;-74
2022/11/18 03:07:54;;;;;;;5.03;0.90;;;;;;;;;;5056741;28;20044;-74
2022/11/18 03:10:21;;;;;;;3.35;1.00;;;;;;;;;;5056343;28;20041;-74
2022/11/18 03:13:04;;;;;;;6.53;1.25;;;;;;;;;;5055855;28;20041;-74
2022/11/18 03:15:33;;;;;;;5.15;1.08;;;;;;;;;;5056152;28;20130;-74
2022/11/18 03:18:12;;;;;;;6.82;1.45;;;;;;;;;;5055689;28;20076;-74
2022/11/18 03:20:41;;;;;;;6.00;1.00;;;;;;;;;;5056105;28;20051;-74
2022/11/18 03:23:14;;;;;;;5.53;1.15;;;;;;;;;;5056120;28;20481;-74
2022/11/18 03:25:44;;;;;;;4.97;1.13;;;;;;;;;;5055529;28;20419;-74
2022/11/18 03:28:20;;;;;;;4.45;1.23;;;;;;;;;;5055873;28;20606;-74
2022/11/18 03:30:50;;;;;;;4.35;1.20;;;;;;;;;;5055885;28;20484;-74
2022/11/18 03:33:18;;;;;;;7.50;1.13;;;;;;;;;;5056061;28;20112;-74
2022/11/18 03:35:47;;;;;;;4.65;0.90;;;;;;;;;;5055488;28;20044;-74
2022/11/18 03:38:15;;;;;;;6.00;0.93;;;;;;;;;;5055268;28;20045;-74
2022/11/18 03:40:44;;;;;;;5.18;1.00;;;;;;;;;;5055605;28;20076;-74
2022/11/18 03:43:16;;;;;;;6.10;0.90;;;;;;;;;;5055274;28;20037;-74
2022/11/18 03:45:46;;;;;;;5.88;1.08;;;;;;;;;;5055471;28;20052;-74
2022/11/18 03:48:12;;;;;;;6.37;1.10;;;;;;;;;;5056071;28;20068;-74
2022/11/18 03:50:44;;;;;;;4.50;1.00;;;;;;;;;;5055561;28;20295;-74
2022/11/18 03:53:10;;;;;;;5.65;1.00;;;;;;;;;;5055324;28;20060;-74
2022/11/18 03:55:39;;;;;;;3.67;0.70;;;;;;;;;;5054888;28;20040;-74
2022/11/18 03:58:05;;;;;;;5.40;0.77;;;;;;;;;;5054968;28;20075;-74
2022/11/18 04:00:38;;;;;;;5.35;0.98;;;;;;;;;;5055032;28;20045;-74
2022/11/18 04:03:04;;;;;;;5.63;0.80;;;;;;;;;;5055198;28;20055;-74
2022/11/18 04:05:33;;;;;;;5.25;0.90;;;;;;;;;;5054840;28;20048;-74
2022/11/18 04:08:03;;;;;;;7.15;0.90;;;;;;;;;;5054846;28;20056;-74
2022/11/18 04:10:35;;;;;;;4.75;1.20;;;;;;;;;;5055235;28;20048;-74
2022/11/18 04:13:08;;;;;;;6.82;1.20;;;;;;;;;;5055610;28;20206;-74
2022/11/18 04:15:37;;;;;;;3.88;1.00;;;;;;;;;;5054982;28;20045;-74
2022/11/18 04:18:03;;;;;;;5.70;1.20;;;;;;;;;;5055107;28;20047;-74
2022/11/18 04:20:31;;;;;;;8.80;1.08;;;;;;;;;;5055210;28;20091;-74
2022/11/18 04:22:57;;;;;;;4.90;0.98;;;;;;;;;;5054821;28;20063;-74
2022/11/18 04:25:23;;;;;;;9.23;1.10;;;;;;;;;;5054171;28;20057;-74
2022/11/18 04:27:50;;;;;;;6.45;1.33;;;;;;;;;;5054557;28;20043;-74
2022/11/18 04:30:16;;;;;;;6.28;1.08;;;;;;;;;;5054568;28;20076;-74
2022/11/18 04:32:42;;;;;;;5.25;1.17;;;;;;;;;;5054473;28;20512;-74
2022/11/18 04:35:08;;;;;;;5.72;1.30;;;;;;;;;;5053767;28;20124;-74
2022/11/18 04:37:34;;;;;;;6.28;1.02;;;;;;;;;;5054370;28;20072;-74
2022/11/18 04:40:00;;;;;;;6.65;1.30;;;;;;;;;;5054358;28;20049;-74
2022/11/18 04:42:27;;;;;;;6.28;0.93;;;;;;;;;;5054060;28;20392;-74
2022/11/18 04:44:53;;;;;;;7.20;1.55;;;;;;;;;;5054055;28;20117;-74
2022/11/18 04:47:19;;;;;;;8.75;1.42;;;;;;;;;;5054336;28;20041;-74
2022/11/18 04:49:45;;;;;;;8.15;1.40;;;;;;;;;;5054605;28;20037;-74
2022/11/18 04:52:11;;;;;;;5.43;0.90;;;;;;;;;;5054791;28;20128;-74
2022/11/18 04:54:37;;;;;;;4.55;1.10;;;;;;;;;;5054435;28;20048;-74
2022/11/18 04:57:03;;;;;;;6.38;1.35;;;;;;;;;;5057842;28;20125;-73
2022/11/18 04:59:30;;;;;;;9.75;1.65;;;;;;;;;;5074441;28;20029;-74
2022/11/18 05:01:56;;;;;;;10.23;1.63;;;;;;;;;;5074510;28;20044;-73
2022/11/18 05:04:24;;;;;;;5.63;1.02;;;;;;;;;;5074212;28;20037;-74
2022/11/18 05:06:51;;;;;;;8.70;1.45;;;;;;;;;;5074172;28;20046;-74
2022/11/18 05:09:17;;;;;;;6.53;1.15;;;;;;;;;;5074733;28;20066;-74
2022/11/18 05:14:29;;;;;;;5.38;1.17;;;;;;;;;;5074043;28;20044;-74
2022/11/18 05:16:55;;;;;;;9.52;1.55;;;;;;;;;;5074201;28;20083;-74
2022/11/18 05:19:22;;;;;;;5.95;1.02;;;;;;;;;;5074328;28;20041;-74
2022/11/18 05:21:48;;;;;;;8.90;1.30;;;;;;;;;;5073850;28;20064;-74
2022/11/18 05:24:14;;;;;;;9.95;1.35;;;;;;;;;;5074263;28;20111;-74
2022/11/18 05:26:40;;;;;;;8.70;1.45;;;;;;;;;;5073615;28;20055;-74
2022/11/18 05:29:06;;;;;;;4.32;1.20;;;;;;;;;;5074148;28;20116;-74
2022/11/18 05:31:33;;;;;;;9.27;1.40;;;;;;;;;;5073939;28;20123;-74
2022/11/18 05:33:59;;;;;;;4.97;1.05;;;;;;;;;;5074112;28;20115;-74
2022/11/18 05:36:25;;;;;;;7.30;1.40;;;;;;;;;;5073509;28;20048;-73
2022/11/18 05:38:51;;;;;;;7.60;1.25;;;;;;;;;;5073690;28;20511;-72
2022/11/18 05:44:03;;;;;;;5.53;0.90;;;;;;;;;;5073209;28;20505;-73
2022/11/18 05:46:29;;;;;;;8.38;1.63;;;;;;;;;;5074973;28;20098;-73
2022/11/18 05:48:55;;;;;;;5.88;1.45;;;;;;;;;;5076996;28;20117;-73
2022/11/18 05:51:21;;;;;;;7.13;1.50;;;;;;;;;;5076954;28;20086;-73
2022/11/18 05:53:49;;;;;;;5.22;2.03;;;;;;;;;;5077468;28;20036;-73
2022/11/18 05:56:18;;;;;;;8.63;1.35;;;;;;;;;;5077004;28;20052;-72
2022/11/18 05:58:44;;;;;;;9.57;1.20;;;;;;;;;;5077103;28;20048;-73
2022/11/18 06:01:14;;;;;;;7.45;1.45;;;;;;;;;;5076808;28;20035;-73
2022/11/18 06:03:40;;;;;;;9.88;1.58;;;;;;;;;;5077092;28;20040;-73
2022/11/18 06:06:08;;;;;;;5.78;1.60;;;;;;;;;;5077039;28;20058;-73
2022/11/18 06:08:39;;;;;;;6.65;1.00;;;;;;;;;;5077000;28;20124;-73
2022/11/18 06:11:07;;;;;;;10.02;1.10;;;;;;;;;;5076907;28;20041;-73
2022/11/18 06:13:36;;;;;;;7.20;1.00;;;;;;;;;;5077466;28;20098;-73
2022/11/18 06:16:02;;;;;;;6.38;1.02;;;;;;;;;;5076503;28;20040;-73
2022/11/18 06:18:31;;;;;;;8.38;2.17;;;;;;;;;;5076856;28;20055;-73
2022/11/18 06:21:02;;;;;;;8.73;2.80;;;;;;;;;;5076713;28;20041;-72
2022/11/18 06:23:30;;;;;;;4.80;1.73;;;;;;;;;;5076734;28;20476;-73
2022/11/18 06:25:56;;;;;;;2.95;1.00;;;;;;;;;;5076240;28;20047;-73
2022/11/18 06:28:23;;;;;;;3.13;0.85;;;;;;;;;;5076970;28;20044;-72
2022/11/18 06:30:49;;;;;;;7.13;1.08;;;;;;;;;;5076758;28;20079;-72
2022/11/18 06:33:15;;;;;;;4.03;0.90;;;;;;;;;;5076572;28;20036;-72
2022/11/18 06:35:44;;;;;;;5.57;1.52;;;;;;;;;;5076839;28;20047;-73
2022/11/18 06:38:10;;;;;;;2.88;0.80;;;;;;;;;;5074209;28;20040;-72
2022/11/18 06:40:37;;;;;;;2.50;0.60;;;;;;;;;;5055578;28;20518;-72
2022/11/18 06:48:36;;;;;;;3.25;0.80;;;;;;;;;;5055066;28;20083;-72
2022/11/18 06:51:06;;;;;;;3.95;0.82;;;;;;;;;;5055752;28;20053;-72
2022/11/18 06:53:33;;;;;;;4.72;1.10;;;;;;;;;;5055808;28;20063;-73
2022/11/18 06:56:02;;;;;;;3.55;1.98;;;;;;;;;;5055292;28;20122;-73
2022/11/18 06:58:28;;;;;;;2.75;1.10;;;;;;;;;;5055614;28;20044;-73
2022/11/18 07:00:54;;;;;;;7.50;1.25;;;;;;;;;;5055387;28;20049;-73
2022/11/18 07:03:20;;;;;;;7.50;1.17;;;;;;;;;;5052918;28;20044;-73
2022/11/18 07:05:46;;;;;;;4.18;0.80;;;;;;;;;;5055732;28;20484;-73
2022/11/18 07:08:12;;;;;;;8.73;3.38;;;;;;;;;;5056213;28;20045;-73
2022/11/18 07:10:39;;;;;;;2.03;0.70;;;;;;;;;;5056019;28;20063;-71
2022/11/18 07:13:05;;;;;;;4.65;0.95;;;;;;;;;;5055009;28;20549;-71
2022/11/18 07:15:33;;;;;;;4.53;1.00;;;;;;;;;;5054573;28;20041;-71
2022/11/18 07:17:59;;;;;;;2.50;1.13;;;;;;;;;;5054715;28;20160;-72
2022/11/18 07:20:25;;;;;;;3.13;1.00;;;;;;;;;;5056067;28;20484;-72
2022/11/18 07:22:52;;;;;;;5.10;1.00;;;;;;;;;;5056232;28;20041;-72
2022/11/18 07:25:19;;;;;;;4.28;1.40;;;;;;;;;;5055166;28;20076;-72
2022/11/18 07:27:46;;;;;;;4.47;1.00;;;;;;;;;;5054567;28;20052;-72
2022/11/18 07:30:12;;;;;;;7.50;0.90;;;;;;;;;;5055612;28;20126;-72
2022/11/18 07:32:38;;;;;;;6.03;1.75;;;;;;;;;;5056298;28;20529;-72
2022/11/18 07:35:04;;;;;;;5.90;1.10;;;;;;;;;;5055948;28;20045;-72
2022/11/18 07:37:30;;;;;;;3.92;1.15;;;;;;;;;;5055518;28;20049;-71
2022/11/18 07:39:58;;;;;;;4.32;1.13;;;;;;;;;;5049617;28;20040;-71
2022/11/18 07:42:24;;;;;;;4.15;2.00;;;;;;;;;;5052971;28;20488;-71
2022/11/18 07:44:51;;;;;;;5.28;1.15;;;;;;;;;;5054675;28;20033;-72
2022/11/18 07:47:17;;;;;;;6.65;1.02;;;;;;;;;;5055193;28;20079;-72
2022/11/18 07:49:43;;;;;;;3.55;1.20;;;;;;;;;;5054294;28;20496;-71
2022/11/18 07:52:09;;;;;;;5.47;1.45;;;;;;;;;;5055124;28;20048;-71
2022/11/18 07:54:35;;;;;;;3.95;1.25;;;;;;;;;;5054526;28;20037;-71
2022/11/18 07:57:01;;;;;;;5.00;1.63;;;;;;;;;;5054201;28;20103;-73
2022/11/18 07:59:27;;;;;;;4.15;1.70;;;;;;;;;;5053502;28;20148;-72
2022/11/18 08:01:53;;;;;;;4.63;1.65;;;;;;;;;;5054140;28;20055;-71
2022/11/18 08:04:19;;;;;;;3.28;1.00;;;;;;;;;;5054304;28;20037;-71
2022/11/18 08:06:46;;;;;;;8.02;1.10;;;;;;;;;;5054306;28;20037;-73
2022/11/18 08:09:12;;;;;;;11.93;2.33;;;;;;;;;;5053534;28;20052;-73
2022/11/18 08:11:39;;;;;;;4.05;1.00;;;;;;;;;;5054330;28;20036;-73
2022/11/18 08:14:05;;;;;;;4.50;0.95;;;;;;;;;;5052927;28;20037;-73
2022/11/18 08:16:31;;;;;;;4.53;1.00;;;;;;;;;;5053722;28;20101;-73
2022/11/18 08:18:59;;;;;;;7.38;1.13;;;;;;;;;;5054239;28;20055;-74
2022/11/18 08:21:25;;;;;;;5.43;1.10;;;;;;;;;;5054633;28;20349;-74
2022/11/18 08:23:52;;;;;;;5.07;0.80;;;;;;;;;;5052727;28;20048;-74
2022/11/18 08:26:19;;;;;;;5.97;0.90;;;;;;;;;;5053435;28;20052;-73
2022/11/18 08:28:46;;;;;;;5.30;1.27;;;;;;;;;;5053947;28;20194;-73
2022/11/18 08:31:14;;;;;;;3.45;0.88;;;;;;;;;;5054304;28;20086;-71
2022/11/18 08:33:40;;;;;;;3.65;1.15;;;;;;;;;;5052841;28;20041;-73
2022/11/18 08:36:08;;;;;;;6.38;1.10;;;;;;;;;;5054069;28;20124;-72
2022/11/18 08:38:34;;;;;;;4.47;1.20;;;;;;;;;;5051773;28;20049;-71
2022/11/18 08:41:00;;;;;;;3.25;0.80;;;;;;;;;;5052624;28;20095;-72
2022/11/18 08:43:26;;;;;;;4.68;1.10;;;;;;;;;;5054381;28;20037;-72
2022/11/18 08:45:52;;;;;;;6.07;1.73;;;;;;;;;;5054374;28;20045;-72
2022/11/18 08:48:18;;;;;;;3.88;1.55;;;;;;;;;;5053987;28;20565;-72
2022/11/18 08:50:44;;;;;;;11.73;1.50;;;;;;;;;;5053806;28;20041;-72
2022/11/18 08:53:10;;;;;;;17.58;1.98;;;;;;;;;;5054591;28;20102;-72
2022/11/18 08:55:37;;;;;;;11.23;1.58;;;;;;;;;;5053811;28;20069;-72
2022/11/18 08:58:03;;;;;;;4.60;1.00;;;;;;;;;;5054182;28;20045;-72
2022/11/18 09:00:29;;;;;;;8.38;1.00;;;;;;;;;;5053952;28;20053;-72
2022/11/18 09:02:55;;;;;;;10.15;1.40;;;;;;;;;;5054221;28;20075;-72
2022/11/18 09:05:21;;;;;;;5.03;1.00;;;;;;;;;;5053947;28;20563;-72
2022/11/18 09:07:47;;;;;;;1.75;0.50;;;;;;;;;;5054203;28;20055;-72
2022/11/18 09:10:14;;;;;;;5.75;0.90;;;;;;;;;;5054071;28;20071;-72
2022/11/18 09:12:40;;;;;;;4.57;0.75;;;;;;;;;;5054080;28;20040;-72
2022/11/18 09:15:07;;;;;;;4.10;1.08;;;;;;;;;;5053797;28;20128;-72
2022/11/18 09:17:34;;;;;;;2.45;0.50;;;;;;;;;;5053674;28;20099;-72
2022/11/18 09:20:00;;;;;;;4.80;1.00;;;;;;;;;;5053561;28;20076;-72
2022/11/18 09:22:26;;;;;;;6.03;1.00;;;;;;;;;;5062690;28;20041;-72
2022/11/18 09:24:52;;;;;;;3.03;1.00;;;;;;;;;;5052989;28;20309;-75
2022/11/18 09:27:18;;;;;;;4.00;0.73;;;;;;;;;;5063195;28;20515;-74
2022/11/18 09:29:44;;;;;;;4.88;0.90;;;;;;;;;;5057367;28;20123;-74
2022/11/18 09:32:11;;;;;;;5.50;1.15;;;;;;;;;;5057059;28;20044;-73
2022/11/18 09:34:37;;;;;;;2.97;1.20;;;;;;;;;;5057750;28;20064;-73
2022/11/18 09:37:05;;;;;;;5.45;1.10;;;;;;;;;;5056983;28;20040;-73
2022/11/18 09:39:31;;;;;;;3.13;1.00;;;;;;;;;;5057929;28;20076;-73
2022/11/18 09:42:18;;;;;;;4.53;0.90;;;;;;;;;;5056762;28;20075;-74
2022/11/18 09:44:53;;;;;;;4.07;1.17;;;;;;;;;;5057534;28;20148;-73
2022/11/18 09:47:30;;;;;;;5.25;1.30;;;;;;;;;;5057027;28;20137;-74
2022/11/18 09:49:57;;;;;;;5.80;1.30;;;;;;;;;;5057086;28;20044;-74
2022/11/18 09:52:26;;;;;;;5.15;1.35;;;;;;;;;;5057011;28;20130;-74
2022/11/18 09:54:53;;;;;;;4.07;1.40;;;;;;;;;;5056759;28;20037;-74
2022/11/18 09:57:20;;;;;;;119.60;41.92;;;;;;;;;;5056909;28;20123;-73
2022/11/18 09:59:46;;;;;;;8.65;3.03;;;;;;;;;;5057426;28;20049;-74
2022/11/18 10:02:12;;;;;;;24.83;10.30;;;;;;;;;;5056457;28;20511;-74
2022/11/18 10:04:39;;;;;;;5.07;2.65;;;;;;;;;;5056258;28;20044;-74
2022/11/18 10:07:15;;;;;;;7.80;3.80;;;;;;;;;;5056807;28;20045;-73
2022/11/18 10:09:41;;;;;;;22.50;9.57;;;;;;;;;;5056319;28;20143;-73
2022/11/18 10:12:22;;;;;;;9.10;4.45;;;;;;;;;;5056685;28;20110;-74
2022/11/18 10:14:57;;;;;;;10.48;5.63;;;;;;;;;;5055904;28;20086;-74
2022/11/18 10:17:27;;;;;;;15.13;6.00;;;;;;;;;;5036618;28;20052;-74
2022/11/18 10:19:56;;;;;;;14.98;6.88;;;;;;;;;;5037202;28;20049;-74
2022/11/18 10:22:27;;;;;;;13.05;5.43;;;;;;;;;;5037148;28;20118;-74
2022/11/18 10:24:54;;;;;;;8.30;3.28;;;;;;;;;;5053563;28;20061;-74
2022/11/18 10:27:21;;;;;;;4.55;2.55;;;;;;;;;;5056796;28;20041;-73
2022/11/18 10:29:52;;;;;;;7.38;2.83;;;;;;;;;;5056948;28;20044;-74
2022/11/18 10:32:18;;;;;;;5.53;1.48;;;;;;;;;;5056084;28;20041;-74
2022/11/18 10:34:51;;;;;;;5.50;2.60;;;;;;;;;;5055669;28;20056;-74
2022/11/18 10:37:31;;;;;;;4.43;2.10;;;;;;;;;;5052576;28;20059;-74
2022/11/18 10:39:58;;;;;;;7.77;2.47;;;;;;;;;;5055905;28;20067;-74
2022/11/18 10:42:24;;;;;;;5.00;1.40;;;;;;;;;;5056124;28;20059;-74
2022/11/18 10:44:51;;;;;;;4.38;1.90;;;;;;;;;;5056254;28;20041;-73
2022/11/18 10:47:28;;;;;;;5.35;1.58;;;;;;;;;;5055513;28;20057;-74
2022/11/18 10:49:55;;;;;;;6.60;2.22;;;;;;;;;;5055154;28;20049;-74
2022/11/18 10:52:21;;;;;;;6.90;3.63;;;;;;;;;;5056015;28;20041;-76
2022/11/18 10:55:05;;;;;;;6.43;2.83;;;;;;;;;;5055213;28;20609;-73
2022/11/18 10:57:34;;;;;;;9.25;3.60;;;;;;;;;;5046039;28;20049;-74
2022/11/18 11:00:00;;;;;;;13.13;2.55;;;;;;;;;;5056025;28;20048;-73
2022/11/18 11:02:31;;;;;;;7.15;2.92;;;;;;;;;;5055099;28;20037;-74
2022/11/18 11:04:58;;;;;;;7.03;2.92;;;;;;;;;;5055231;28;20047;-73
2022/11/18 11:07:30;;;;;;;9.88;3.80;;;;;;;;;;5054654;28;20049;-73
2022/11/18 11:10:12;;;;;;;6.35;2.83;;;;;;;;;;5054722;28;20051;-73
2022/11/18 11:12:46;;;;;;;8.40;1.90;;;;;;;;;;5055354;28;20082;-74
2022/11/18 11:15:18;;;;;;;4.60;1.90;;;;;;;;;;5054852;28;20365;-74
2022/11/18 11:20:50;;;;;;;4.53;1.48;;;;;;;;;;5053912;28;20542;-74
2022/11/18 11:23:17;;;;;;;4.43;2.05;;;;;;;;;;5055049;28;20044;-73
2022/11/18 11:25:45;;;;;;;5.38;1.77;;;;;;;;;;5054419;28;20061;-74
2022/11/18 11:28:17;;;;;;;4.25;1.08;;;;;;;;;;5055004;28;20132;-73
2022/11/18 11:30:54;;;;;;;6.55;1.50;;;;;;;;;;5053269;28;20053;-74
2022/11/18 11:33:42;;;;;;;3.20;1.00;;;;;;;;;;5054585;28;20041;-74
2022/11/18 11:36:32;;;;;;;3.33;1.40;;;;;;;;;;5043480;28;20045;-73
2022/11/18 11:39:06;;;;;;;4.22;1.60;;;;;;;;;;5049065;28;20120;-73
2022/11/18 11:41:35;;;;;;;3.88;1.20;;;;;;;;;;5054561;28;20033;-73
2022/11/18 11:44:17;;;;;;;8.18;2.53;;;;;;;;;;5053141;28;20063;-73
2022/11/18 11:49:52;;;;;;;3.50;0.88;;;;;;;;;;5033667;28;20044;-73
2022/11/18 11:52:38;;;;;;;3.28;1.02;;;;;;;;;;5035790;28;20052;-75
2022/11/18 11:55:13;;;;;;;5.13;0.98;;;;;;;;;;5049912;28;20041;-73
2022/11/18 11:58:02;;;;;;;2.95;0.90;;;;;;;;;;5051522;28;20045;-75
2022/11/18 12:00:31;;;;;;;6.65;1.10;;;;;;;;;;5054733;28;20049;-76
2022/11/18 12:03:20;;;;;;;5.65;1.20;;;;;;;;;;5054991;28;20029;-73
2022/11/18 12:05:46;;;;;;;7.32;1.15;;;;;;;;;;5054600;28;20472;-74
2022/11/18 12:08:15;;;;;;;4.65;1.35;;;;;;;;;;5054910;28;20041;-74
2022/11/18 12:11:07;;;;;;;4.68;1.60;;;;;;;;;;5054984;28;20127;-74
2022/11/18 12:13:47;;;;;;;4.93;1.20;;;;;;;;;;5053519;28;20123;-74
2022/11/18 12:16:32;;;;;;;5.07;1.15;;;;;;;;;;5055054;28;20354;-74
2022/11/18 12:19:18;;;;;;;6.40;1.10;;;;;;;;;;5055128;28;20049;-74
2022/11/18 12:21:44;;;;;;;5.25;0.93;;;;;;;;;;5054657;28;20534;-74
2022/11/18 12:24:20;;;;;;;5.20;1.20;;;;;;;;;;5054600;28;20127;-74
2022/11/18 12:26:47;;;;;;;2.53;0.82;;;;;;;;;;5055300;28;20056;-74
2022/11/18 12:29:19;;;;;;;6.47;1.20;;;;;;;;;;5055437;28;20037;-74
2022/11/18 12:31:49;;;;;;;4.60;1.10;;;;;;;;;;5054811;28;20098;-74
2022/11/18 12:34:18;;;;;;;4.80;0.98;;;;;;;;;;5054442;28;20037;-74
2022/11/18 12:36:45;;;;;;;7.97;1.10;;;;;;;;;;5054665;28;20048;-74
2022/11/18 12:39:40;;;;;;;4.15;0.77;;;;;;;;;;5054558;28;20072;-74
2022/11/18 12:45:30;;;;;;;4.43;0.80;;;;;;;;;;5054166;28;20518;-74
2022/11/18 12:47:56;;;;;;;4.38;1.38;;;;;;;;;;5054922;28;20171;-74
2022/11/18 12:50:42;;;;;;;4.30;1.05;;;;;;;;;;5054625;28;20116;-74
2022/11/18 12:53:08;;;;;;;2.78;1.00;;;;;;;;;;5054515;28;20041;-74
2022/11/18 12:55:37;;;;;;;4.80;1.33;;;;;;;;;;5056633;28;20118;-74
2022/11/18 12:58:03;;;;;;;3.88;1.25;;;;;;;;;;5058381;28;20502;-74
2022/11/18 13:00:31;;;;;;;8.77;1.15;;;;;;;;;;5058965;28;20084;-74
2022/11/18 13:02:58;;;;;;;6.15;1.30;;;;;;;;;;5059174;28;20041;-74
2022/11/18 13:05:26;;;;;;;7.13;1.23;;;;;;;;;;5058827;28;20496;-74
2022/11/18 13:08:14;;;;;;;6.05;0.98;;;;;;;;;;5058270;28;20037;-74
2022/11/18 13:10:40;;;;;;;8.98;1.48;;;;;;;;;;5058530;28;20049;-74
2022/11/18 13:13:12;;;;;;;6.82;1.15;;;;;;;;;;5058439;28;20124;-74
2022/11/18 13:18:26;;;;;;;7.68;1.08;;;;;;;;;;5057752;28;20044;-74
2022/11/18 13:20:56;;;;;;;5.32;1.50;;;;;;;;;;5058498;28;20037;-74
2022/11/18 13:26:17;;;;;;;4.35;1.27;;;;;;;;;;5057756;28;20451;-74
2022/11/18 13:28:46;;;;;;;5.18;1.33;;;;;;;;;;5057563;28;20040;-74
2022/11/18 13:31:15;;;;;;;4.38;1.23;;;;;;;;;;5057800;28;20040;-74
2022/11/18 13:33:41;;;;;;;5.70;1.20;;;;;;;;;;5058064;28;20037;-74
2022/11/18 13:36:24;;;;;;;6.85;1.10;;;;;;;;;;5057484;28;20044;-74
2022/11/18 13:38:57;;;;;;;3.63;0.85;;;;;;;;;;5057917;28;20041;-74
2022/11/18 13:41:23;;;;;;;4.78;1.15;;;;;;;;;;5057225;28;20036;-74
2022/11/18 13:43:50;;;;;;;4.47;1.10;;;;;;;;;;5057583;28;20094;-74
2022/11/18 13:46:20;;;;;;;6.88;1.15;;;;;;;;;;5057264;28;20090;-74
2022/11/18 13:48:52;;;;;;;4.95;1.10;;;;;;;;;;5057638;28;20037;-74
2022/11/18 13:51:18;;;;;;;2.25;0.88;;;;;;;;;;5057556;28;20504;-74
2022/11/18 13:53:44;;;;;;;3.15;0.90;;;;;;;;;;5057406;28;20135;-74
2022/11/18 13:56:19;;;;;;;8.40;1.35;;;;;;;;;;5056911;28;20133;-74
2022/11/18 13:58:48;;;;;;;4.38;0.88;;;;;;;;;;5057660;28;20120;-74
2022/11/18 14:01:19;;;;;;;3.47;1.00;;;;;;;;;;5057265;28;20123;-74
2022/11/18 14:03:57;;;;;;;3.55;0.85;;;;;;;;;;5057253;28;20056;-74
2022/11/18 14:06:30;;;;;;;2.47;1.10;;;;;;;;;;5056025;28;20036;-74
2022/11/18 14:09:17;;;;;;;3.92;1.08;;;;;;;;;;5057217;28;20175;-74
2022/11/18 14:11:45;;;;;;;2.55;1.05;;;;;;;;;;5056898;28;20489;-74
2022/11/18 14:14:26;;;;;;;3.58;1.30;;;;;;;;;;5057004;28;20040;-74
2022/11/18 14:16:53;;;;;;;;;;;;;;;;;;5057031;28;20044;-74
2022/11/18 14:19:30;;;;;;;7.00;1.45;;;;;;;;;;5057768;28;19966;-74
2022/11/18 14:22:03;;;;;;;3.75;1.23;;;;;;;;;;5057396;28;20175;-74
2022/11/18 14:24:29;;;;;;;3.75;1.15;;;;;;;;;;5056457;28;20626;-74
2022/11/18 14:26:55;;;;;;;4.47;1.40;;;;;;;;;;5057002;28;20075;-74
2022/11/18 14:29:22;;;;;;;5.20;1.42;;;;;;;;;;5056953;28;20045;-74
2022/11/18 14:32:23;;;;;;;4.50;1.15;;;;;;;;;;5056976;28;20041;-74
2022/11/18 14:34:59;;;;;;;4.57;1.13;;;;;;;;;;5054651;28;20138;-74
2022/11/18 14:37:26;;;;;;;5.63;1.17;;;;;;;;;;5055927;28;20041;-74
2022/11/18 14:39:56;;;;;;;10.23;3.72;;;;;;;;;;5057179;28;20506;-74
2022/11/18 14:42:22;;;;;;;10.43;3.47;;;;;;;;;;5056833;28;20040;-74
2022/11/18 14:44:48;;;;;;;11.05;5.38;;;;;;;;;;5056727;28;20033;-74
2022/11/18 14:47:22;;;;;;;5.60;2.42;;;;;;;;;;5056953;28;20068;-74
2022/11/18 14:49:48;;;;;;;6.68;1.90;;;;;;;;;;5057097;28;20045;-74
2022/11/18 14:52:16;;;;;;;6.78;1.35;;;;;;;;;;5056620;28;20126;-74
2022/11/18 14:54:42;;;;;;;7.28;1.27;;;;;;;;;;5056236;28;20438;-74
2022/11/18 14:57:11;;;;;;;5.82;1.70;;;;;;;;;;5056445;28;20041;-73
2022/11/18 14:59:37;;;;;;;2.15;0.93;;;;;;;;;;5056959;28;20056;-72
2022/11/18 15:02:03;;;;;;;4.13;0.95;;;;;;;;;;5056502;28;20037;-72
2022/11/18 15:04:29;;;;;;;6.65;1.60;;;;;;;;;;5056110;28;20036;-72
2022/11/18 15:06:56;;;;;;;4.40;1.90;;;;;;;;;;5056908;28;20487;-72
2022/11/18 15:09:22;;;;;;;8.55;1.67;;;;;;;;;;5053339;28;20037;-71
2022/11/18 15:11:48;;;;;;;10.25;2.25;;;;;;;;;;5055806;28;20041;-71
2022/11/18 15:14:14;;;;;;;7.90;2.17;;;;;;;;;;5056172;28;20056;-71
2022/11/18 15:16:40;;;;;;;4.63;1.63;;;;;;;;;;5055779;28;20095;-71
2022/11/18 15:19:11;;;;;;;10.73;2.70;;;;;;;;;;5056690;28;20053;-71
2022/11/18 15:21:38;;;;;;;4.22;1.40;;;;;;;;;;5056078;28;20048;-71
2022/11/18 15:24:04;;;;;;;7.47;2.13;;;;;;;;;;5055715;28;20130;-71
2022/11/18 15:26:38;;;;;;;11.82;4.05;;;;;;;;;;5055373;28;20057;-71